METAR Data
IDs: Format: Raw Decoded Include TAF

Data at: 1351 UTC 13 Dec 2019

KHOT 131253Z AUTO 00000KT 10SM OVC050 03/00 A2999 RMK AO2 SLP156 T00280000
KHOT 131153Z AUTO 00000KT 10SM BKN050 02/M01 A2999 RMK AO2 SLP158 T00221006 10022 20011 56014
KHOT 131053Z AUTO 00000KT 10SM CLR 02/M01 A3000 RMK AO2 SLP159 T00221006
KHOT 130953Z AUTO 00000KT 10SM CLR 02/M01 A3002 RMK AO2 SLP166 T00171011
KHOT 130853Z AUTO 00000KT 10SM CLR 02/M01 A3004 RMK AO2 SLP172 T00171011 57019
KHOT 130753Z AUTO 00000KT 10SM CLR 02/M01 A3005 RMK AO2 SLP177 T00171011
KHOT 130653Z AUTO 00000KT 10SM CLR 02/M02 A3008 RMK AO2 SLP185 T00171017
KHOT 130553Z AUTO 00000KT 10SM CLR 02/M02 A3009 RMK AO2 SLP191 T00221022 10056 20011 401171028 58012
KHOT 130453Z AUTO 00000KT 10SM CLR 02/M02 A3011 RMK AO2 SLP195 T00171017
KHOT 130353Z AUTO 00000KT 10SM CLR 03/M02 A3011 RMK AO2 SLP199 T00281022
KHOT 130253Z AUTO 07003KT 10SM CLR 03/M02 A3013 RMK AO2 SLP204 T00281022 58004
KHOT 130153Z AUTO 00000KT 10SM CLR 02/M03 A3014 RMK AO2 SLP208 T00221033
KHOT 130053Z AUTO 09003KT 10SM CLR 03/M03 A3014 RMK AO2 SLP208 T00281028
KHOT 122353Z AUTO 13003KT 10SM CLR 05/M03 A3014 RMK AO2 SLP208 T00501033 10117 20050 56014
KHOT 122253Z AUTO 00000KT 10SM CLR 10/M04 A3016 RMK AO2 SLP213 T01001044
KHOT 122153Z AUTO 14006KT 10SM CLR 11/M05 A3016 RMK AO2 SLP213 T01111050
KHOT 122053Z AUTO 16006KT 10SM CLR 12/M05 A3018 RMK AO2 SLP220 T01171050 56042
KHOT 121953Z AUTO 19004KT 10SM CLR 11/M06 A3020 RMK AO2 SLP228 T01111056
KHOT 121853Z AUTO 00000KT 10SM CLR 11/M04 A3024 RMK AO2 SLP243 T01061039
KHOT 121753Z AUTO 17004KT 10SM CLR 09/M03 A3030 RMK AO2 SLP263 T00891033 10094 21028 58031
KHOT 121653Z AUTO 13004KT 10SM CLR 08/M02 A3035 RMK AO2 SLP280 T00781017
KHOT 121553Z AUTO 10004KT 10SM CLR 04/M01 A3038 RMK AO2 SLP291 T00441006
KHOT 121507Z AUTO 00000KT 7SM SCT001 01/M01 A3040 RMK AO2 T00061011
KHOT 121458Z AUTO 00000KT 2SM BR BKN001 00/M01 A3040 RMK AO2 T00001011
KHOT 121453Z AUTO 00000KT 3/4SM BR VV001 00/M01 A3040 RMK AO2 SLP296 T00001011 56002
KHOT 121407Z AUTO 00000KT 1/4SM FZFG VV001 M01/M03 A3039 RMK AO2 T10111028
KHOT 121402Z AUTO 00000KT 1SM HZ OVC001 M01/M04 A3039 RMK AO2 T10111039
KHOT 121353Z AUTO 00000KT 10SM OVC001 M01/M03 A3040 RMK AO2 SLP296 T10111033
KHOT 121329Z AUTO 00000KT 10SM BKN001 M02/M04 A3040 RMK AO2 T10221044
KHOT 121320Z AUTO 00000KT 10SM SCT001 M02/M04 A3040 RMK AO2 T10221044
KHOT 121253Z AUTO 00000KT 10SM CLR M02/M04 A3040 RMK AO2 SLP297 T10221044
KHOT 121153Z AUTO 00000KT 10SM CLR M02/M04 A3040 RMK AO2 SLP297 T10171039 10011 21022 56005
KHOT 121053Z AUTO 00000KT 10SM CLR M01/M04 A3040 RMK AO2 SLP297 T10111039
KHOT 120953Z AUTO 00000KT 10SM CLR M01/M04 A3041 RMK AO2 SLP299 T10111039
KHOT 120853Z AUTO 08003KT 10SM CLR M02/M04 A3042 RMK AO2 SLP301 T10171044 58016
KHOT 120753Z AUTO 00000KT 10SM CLR M01/M04 A3044 RMK AO2 SLP310 T10061039
KHOT 120653Z AUTO 07004KT 10SM CLR 01/M03 A3045 RMK AO2 SLP311 T00061033
KHOT 120553Z AUTO 00000KT 10SM CLR 00/M04 A3046 RMK AO2 SLP318 T00001044 10078 21011 401171050 50001
KHOT 120453Z AUTO 07003KT 10SM CLR 01/M04 A3047 RMK AO2 SLP318 T00061039
KHOT 120353Z AUTO 00000KT 10SM CLR 01/M04 A3047 RMK AO2 SLP321 T00111039
KHOT 120253Z AUTO 00000KT 10SM CLR 01/M03 A3046 RMK AO2 SLP318 T00111033 58001
KHOT 120153Z AUTO 00000KT 10SM CLR 03/M03 A3046 RMK AO2 SLP320 T00331033